sensor_id;sensor_type;location;lat;lon;timestamp;P1;durP1;ratioP1;P2;durP2;ratioP2
359;SDS011;168;48.872;9.226;2023-01-28T00:01:59;6.60;;;5.90;;
359;SDS011;168;48.872;9.226;2023-01-28T00:04:27;7.50;;;6.73;;
359;SDS011;168;48.872;9.226;2023-01-28T00:06:54;8.93;;;7.23;;
359;SDS011;168;48.872;9.226;2023-01-28T00:09:22;7.87;;;6.40;;
359;SDS011;168;48.872;9.226;2023-01-28T00:11:49;7.40;;;5.40;;
359;SDS011;168;48.872;9.226;2023-01-28T00:14:17;7.50;;;6.00;;
359;SDS011;168;48.872;9.226;2023-01-28T00:16:45;5.83;;;5.33;;
359;SDS011;168;48.872;9.226;2023-01-28T00:19:13;7.23;;;6.53;;
359;SDS011;168;48.872;9.226;2023-01-28T00:21:40;7.03;;;6.10;;
359;SDS011;168;48.872;9.226;2023-01-28T00:24:07;7.83;;;6.30;;
359;SDS011;168;48.872;9.226;2023-01-28T00:26:35;6.23;;;5.70;;
359;SDS011;168;48.872;9.226;2023-01-28T00:29:02;6.93;;;6.20;;
359;SDS011;168;48.872;9.226;2023-01-28T00:31:29;8.70;;;6.43;;
359;SDS011;168;48.872;9.226;2023-01-28T00:34:00;6.77;;;6.07;;
359;SDS011;168;48.872;9.226;2023-01-28T00:36:30;6.73;;;6.10;;
359;SDS011;168;48.872;9.226;2023-01-28T00:38:58;6.80;;;6.10;;
359;SDS011;168;48.872;9.226;2023-01-28T00:41:26;7.10;;;6.40;;
359;SDS011;168;48.872;9.226;2023-01-28T00:43:54;6.50;;;5.90;;
359;SDS011;168;48.872;9.226;2023-01-28T00:46:22;8.30;;;6.70;;
359;SDS011;168;48.872;9.226;2023-01-28T00:48:49;7.20;;;5.97;;
359;SDS011;168;48.872;9.226;2023-01-28T00:51:18;7.33;;;6.17;;
359;SDS011;168;48.872;9.226;2023-01-28T00:53:46;6.97;;;5.40;;
359;SDS011;168;48.872;9.226;2023-01-28T00:56:14;6.20;;;5.37;;
359;SDS011;168;48.872;9.226;2023-01-28T00:58:44;6.40;;;5.80;;
359;SDS011;168;48.872;9.226;2023-01-28T01:01:12;5.93;;;5.33;;
359;SDS011;168;48.872;9.226;2023-01-28T01:03:41;6.03;;;5.40;;
359;SDS011;168;48.872;9.226;2023-01-28T01:06:09;5.40;;;4.90;;
359;SDS011;168;48.872;9.226;2023-01-28T01:08:41;6.17;;;5.57;;
359;SDS011;168;48.872;9.226;2023-01-28T01:11:14;7.77;;;5.60;;
359;SDS011;168;48.872;9.226;2023-01-28T01:13:42;6.70;;;5.03;;
359;SDS011;168;48.872;9.226;2023-01-28T01:16:11;6.00;;;5.40;;
359;SDS011;168;48.872;9.226;2023-01-28T01:18:41;5.47;;;4.33;;
359;SDS011;168;48.872;9.226;2023-01-28T01:21:09;5.60;;;4.80;;
359;SDS011;168;48.872;9.226;2023-01-28T01:23:38;5.03;;;4.63;;
359;SDS011;168;48.872;9.226;2023-01-28T01:26:07;6.97;;;5.20;;
359;SDS011;168;48.872;9.226;2023-01-28T01:28:35;5.57;;;5.03;;
359;SDS011;168;48.872;9.226;2023-01-28T01:31:03;6.10;;;5.50;;
359;SDS011;168;48.872;9.226;2023-01-28T01:33:32;5.90;;;4.70;;
359;SDS011;168;48.872;9.226;2023-01-28T01:36:00;5.00;;;4.50;;
359;SDS011;168;48.872;9.226;2023-01-28T01:38:28;6.00;;;4.70;;
359;SDS011;168;48.872;9.226;2023-01-28T01:40:55;5.37;;;4.87;;
359;SDS011;168;48.872;9.226;2023-01-28T01:46:14;8.40;;;5.50;;
359;SDS011;168;48.872;9.226;2023-01-28T01:48:44;5.03;;;4.53;;
359;SDS011;168;48.872;9.226;2023-01-28T01:51:13;5.43;;;4.70;;
359;SDS011;168;48.872;9.226;2023-01-28T01:53:44;5.53;;;4.77;;
359;SDS011;168;48.872;9.226;2023-01-28T01:56:16;5.30;;;4.80;;
359;SDS011;168;48.872;9.226;2023-01-28T01:58:49;6.10;;;4.60;;
359;SDS011;168;48.872;9.226;2023-01-28T02:01:20;4.93;;;4.37;;
359;SDS011;168;48.872;9.226;2023-01-28T02:03:52;4.80;;;3.90;;
359;SDS011;168;48.872;9.226;2023-01-28T02:06:25;4.60;;;4.20;;
359;SDS011;168;48.872;9.226;2023-01-28T02:08:53;5.40;;;4.90;;
359;SDS011;168;48.872;9.226;2023-01-28T02:11:22;4.70;;;4.27;;
359;SDS011;168;48.872;9.226;2023-01-28T02:13:55;5.37;;;4.30;;
359;SDS011;168;48.872;9.226;2023-01-28T02:16:25;5.73;;;4.53;;
359;SDS011;168;48.872;9.226;2023-01-28T02:18:53;5.30;;;4.80;;
359;SDS011;168;48.872;9.226;2023-01-28T02:21:39;4.50;;;4.07;;
359;SDS011;168;48.872;9.226;2023-01-28T02:27:26;5.17;;;4.67;;
359;SDS011;168;48.872;9.226;2023-01-28T02:30:04;6.00;;;5.13;;
359;SDS011;168;48.872;9.226;2023-01-28T02:32:38;6.80;;;5.53;;
359;SDS011;168;48.872;9.226;2023-01-28T02:35:11;5.83;;;5.13;;
359;SDS011;168;48.872;9.226;2023-01-28T02:37:44;6.77;;;6.07;;
359;SDS011;168;48.872;9.226;2023-01-28T02:40:17;5.73;;;5.23;;
359;SDS011;168;48.872;9.226;2023-01-28T02:42:49;5.43;;;4.70;;
359;SDS011;168;48.872;9.226;2023-01-28T02:45:20;5.87;;;5.20;;
359;SDS011;168;48.872;9.226;2023-01-28T02:47:49;5.60;;;4.73;;
359;SDS011;168;48.872;9.226;2023-01-28T02:50:22;5.43;;;4.53;;
359;SDS011;168;48.872;9.226;2023-01-28T02:52:55;6.23;;;5.63;;
359;SDS011;168;48.872;9.226;2023-01-28T02:55:57;6.47;;;5.27;;
359;SDS011;168;48.872;9.226;2023-01-28T02:58:34;6.27;;;5.33;;
359;SDS011;168;48.872;9.226;2023-01-28T03:01:09;7.33;;;5.43;;
359;SDS011;168;48.872;9.226;2023-01-28T03:03:46;5.43;;;4.90;;
359;SDS011;168;48.872;9.226;2023-01-28T03:06:25;6.10;;;5.50;;
359;SDS011;168;48.872;9.226;2023-01-28T03:08:58;7.00;;;6.30;;
359;SDS011;168;48.872;9.226;2023-01-28T03:11:45;6.23;;;5.30;;
359;SDS011;168;48.872;9.226;2023-01-28T03:14:33;5.63;;;5.00;;
359;SDS011;168;48.872;9.226;2023-01-28T03:17:21;6.00;;;5.30;;
359;SDS011;168;48.872;9.226;2023-01-28T03:20:10;7.00;;;6.20;;
359;SDS011;168;48.872;9.226;2023-01-28T03:22:56;5.97;;;5.40;;
359;SDS011;168;48.872;9.226;2023-01-28T03:25:50;6.80;;;6.10;;
359;SDS011;168;48.872;9.226;2023-01-28T03:28:40;7.40;;;6.47;;
359;SDS011;168;48.872;9.226;2023-01-28T03:31:27;7.00;;;5.77;;
359;SDS011;168;48.872;9.226;2023-01-28T03:34:14;7.97;;;6.50;;
359;SDS011;168;48.872;9.226;2023-01-28T03:36:59;7.60;;;6.73;;
359;SDS011;168;48.872;9.226;2023-01-28T03:39:27;7.00;;;6.27;;
359;SDS011;168;48.872;9.226;2023-01-28T03:41:56;8.57;;;7.13;;
359;SDS011;168;48.872;9.226;2023-01-28T03:44:25;9.50;;;8.23;;
359;SDS011;168;48.872;9.226;2023-01-28T03:47:11;8.43;;;7.63;;
359;SDS011;168;48.872;9.226;2023-01-28T03:49:41;9.13;;;8.20;;
359;SDS011;168;48.872;9.226;2023-01-28T03:52:10;8.30;;;7.50;;
359;SDS011;168;48.872;9.226;2023-01-28T03:54:37;10.73;;;9.00;;
359;SDS011;168;48.872;9.226;2023-01-28T03:57:05;12.90;;;9.73;;
359;SDS011;168;48.872;9.226;2023-01-28T03:59:32;9.60;;;8.60;;
359;SDS011;168;48.872;9.226;2023-01-28T04:02:00;9.80;;;8.80;;
359;SDS011;168;48.872;9.226;2023-01-28T04:04:28;9.23;;;8.27;;
359;SDS011;168;48.872;9.226;2023-01-28T04:06:58;9.20;;;8.20;;
359;SDS011;168;48.872;9.226;2023-01-28T04:09:26;10.73;;;8.97;;
359;SDS011;168;48.872;9.226;2023-01-28T04:11:53;9.50;;;8.50;;
359;SDS011;168;48.872;9.226;2023-01-28T04:14:20;8.87;;;7.97;;
359;SDS011;168;48.872;9.226;2023-01-28T04:16:48;10.27;;;7.30;;
359;SDS011;168;48.872;9.226;2023-01-28T04:19:16;9.73;;;8.20;;
359;SDS011;168;48.872;9.226;2023-01-28T04:21:43;9.63;;;8.73;;
359;SDS011;168;48.872;9.226;2023-01-28T04:24:13;8.67;;;7.60;;
359;SDS011;168;48.872;9.226;2023-01-28T04:26:41;10.30;;;8.70;;
359;SDS011;168;48.872;9.226;2023-01-28T04:29:08;8.63;;;7.80;;
359;SDS011;168;48.872;9.226;2023-01-28T04:31:35;9.43;;;8.23;;
359;SDS011;168;48.872;9.226;2023-01-28T04:34:03;9.03;;;7.70;;
359;SDS011;168;48.872;9.226;2023-01-28T04:36:30;10.33;;;8.50;;
359;SDS011;168;48.872;9.226;2023-01-28T04:38:57;9.80;;;8.43;;
359;SDS011;168;48.872;9.226;2023-01-28T04:41:26;8.90;;;8.00;;
359;SDS011;168;48.872;9.226;2023-01-28T04:43:53;8.73;;;7.70;;
359;SDS011;168;48.872;9.226;2023-01-28T04:46:21;9.37;;;8.23;;
359;SDS011;168;48.872;9.226;2023-01-28T04:48:48;8.80;;;7.63;;
359;SDS011;168;48.872;9.226;2023-01-28T04:51:15;8.87;;;7.97;;
359;SDS011;168;48.872;9.226;2023-01-28T04:53:43;7.67;;;6.90;;
359;SDS011;168;48.872;9.226;2023-01-28T04:56:10;8.10;;;7.30;;
359;SDS011;168;48.872;9.226;2023-01-28T04:58:39;7.43;;;6.70;;
359;SDS011;168;48.872;9.226;2023-01-28T05:01:06;7.57;;;6.87;;
359;SDS011;168;48.872;9.226;2023-01-28T05:03:34;9.33;;;8.43;;
359;SDS011;168;48.872;9.226;2023-01-28T05:06:01;9.80;;;8.80;;
359;SDS011;168;48.872;9.226;2023-01-28T05:08:29;8.97;;;8.03;;
359;SDS011;168;48.872;9.226;2023-01-28T05:10:57;11.07;;;9.00;;
359;SDS011;168;48.872;9.226;2023-01-28T05:13:24;8.70;;;7.63;;
359;SDS011;168;48.872;9.226;2023-01-28T05:15:53;8.93;;;8.00;;
359;SDS011;168;48.872;9.226;2023-01-28T05:18:20;8.40;;;7.60;;
359;SDS011;168;48.872;9.226;2023-01-28T05:20:47;9.47;;;8.10;;
359;SDS011;168;48.872;9.226;2023-01-28T05:23:15;10.00;;;7.87;;
359;SDS011;168;48.872;9.226;2023-01-28T05:25:42;8.10;;;7.17;;
359;SDS011;168;48.872;9.226;2023-01-28T05:28:09;8.90;;;7.80;;
359;SDS011;168;48.872;9.226;2023-01-28T05:30:37;8.70;;;6.93;;
359;SDS011;168;48.872;9.226;2023-01-28T05:33:06;8.27;;;6.97;;
359;SDS011;168;48.872;9.226;2023-01-28T05:35:34;8.10;;;7.30;;
359;SDS011;168;48.872;9.226;2023-01-28T05:38:02;7.20;;;6.50;;
359;SDS011;168;48.872;9.226;2023-01-28T05:40:29;9.10;;;8.20;;
359;SDS011;168;48.872;9.226;2023-01-28T05:42:56;9.23;;;6.83;;
359;SDS011;168;48.872;9.226;2023-01-28T05:45:24;7.57;;;6.70;;
359;SDS011;168;48.872;9.226;2023-01-28T05:47:52;7.50;;;6.80;;
359;SDS011;168;48.872;9.226;2023-01-28T05:50:20;8.60;;;7.73;;
359;SDS011;168;48.872;9.226;2023-01-28T05:52:48;8.77;;;7.40;;
359;SDS011;168;48.872;9.226;2023-01-28T05:55:15;11.00;;;8.63;;
359;SDS011;168;48.872;9.226;2023-01-28T05:57:42;9.10;;;8.10;;
359;SDS011;168;48.872;9.226;2023-01-28T06:00:10;8.37;;;7.57;;
359;SDS011;168;48.872;9.226;2023-01-28T06:02:39;8.30;;;7.40;;
359;SDS011;168;48.872;9.226;2023-01-28T06:05:07;9.53;;;8.40;;
359;SDS011;168;48.872;9.226;2023-01-28T06:07:36;10.37;;;8.70;;
359;SDS011;168;48.872;9.226;2023-01-28T06:10:04;10.80;;;9.17;;
359;SDS011;168;48.872;9.226;2023-01-28T06:12:32;10.60;;;9.40;;
359;SDS011;168;48.872;9.226;2023-01-28T06:14:59;10.57;;;8.20;;
359;SDS011;168;48.872;9.226;2023-01-28T06:17:27;11.17;;;9.50;;
359;SDS011;168;48.872;9.226;2023-01-28T06:19:54;9.00;;;7.53;;
359;SDS011;168;48.872;9.226;2023-01-28T06:22:21;14.50;;;9.47;;
359;SDS011;168;48.872;9.226;2023-01-28T06:24:50;10.50;;;9.00;;
359;SDS011;168;48.872;9.226;2023-01-28T06:27:18;11.40;;;9.20;;
359;SDS011;168;48.872;9.226;2023-01-28T06:29:45;10.07;;;9.07;;
359;SDS011;168;48.872;9.226;2023-01-28T06:32:12;11.47;;;10.27;;
359;SDS011;168;48.872;9.226;2023-01-28T06:34:40;10.90;;;9.80;;
359;SDS011;168;48.872;9.226;2023-01-28T06:37:07;11.90;;;9.73;;
359;SDS011;168;48.872;9.226;2023-01-28T06:39:34;12.13;;;10.37;;
359;SDS011;168;48.872;9.226;2023-01-28T06:42:03;11.80;;;9.77;;
359;SDS011;168;48.872;9.226;2023-01-28T06:44:32;12.00;;;9.53;;
359;SDS011;168;48.872;9.226;2023-01-28T06:46:59;12.93;;;10.57;;
359;SDS011;168;48.872;9.226;2023-01-28T06:49:26;12.80;;;9.87;;
359;SDS011;168;48.872;9.226;2023-01-28T06:51:54;11.50;;;9.43;;
359;SDS011;168;48.872;9.226;2023-01-28T06:54:21;11.60;;;9.73;;
359;SDS011;168;48.872;9.226;2023-01-28T06:56:48;13.30;;;9.57;;
359;SDS011;168;48.872;9.226;2023-01-28T06:59:17;10.20;;;9.00;;
359;SDS011;168;48.872;9.226;2023-01-28T07:01:44;11.00;;;9.90;;
359;SDS011;168;48.872;9.226;2023-01-28T07:04:12;11.90;;;9.93;;
359;SDS011;168;48.872;9.226;2023-01-28T07:06:39;11.33;;;9.67;;
359;SDS011;168;48.872;9.226;2023-01-28T07:09:06;11.03;;;8.83;;
359;SDS011;168;48.872;9.226;2023-01-28T07:11:34;10.53;;;9.43;;
359;SDS011;168;48.872;9.226;2023-01-28T07:14:01;12.10;;;10.10;;
359;SDS011;168;48.872;9.226;2023-01-28T07:16:30;11.50;;;9.53;;
359;SDS011;168;48.872;9.226;2023-01-28T07:18:58;10.80;;;9.73;;
359;SDS011;168;48.872;9.226;2023-01-28T07:21:25;10.90;;;9.80;;
359;SDS011;168;48.872;9.226;2023-01-28T07:23:52;14.33;;;10.80;;
359;SDS011;168;48.872;9.226;2023-01-28T07:26:20;14.33;;;10.00;;
359;SDS011;168;48.872;9.226;2023-01-28T07:28:48;11.43;;;10.20;;
359;SDS011;168;48.872;9.226;2023-01-28T07:31:15;11.90;;;10.60;;
359;SDS011;168;48.872;9.226;2023-01-28T07:33:44;13.40;;;10.17;;
359;SDS011;168;48.872;9.226;2023-01-28T07:36:11;11.17;;;9.97;;
359;SDS011;168;48.872;9.226;2023-01-28T07:38:39;10.33;;;9.20;;
359;SDS011;168;48.872;9.226;2023-01-28T07:41:06;12.83;;;9.80;;
359;SDS011;168;48.872;9.226;2023-01-28T07:43:34;11.83;;;9.40;;
359;SDS011;168;48.872;9.226;2023-01-28T07:46:01;12.93;;;10.93;;
359;SDS011;168;48.872;9.226;2023-01-28T07:48:29;11.43;;;10.00;;
359;SDS011;168;48.872;9.226;2023-01-28T07:50:58;12.03;;;10.37;;
359;SDS011;168;48.872;9.226;2023-01-28T07:53:26;14.07;;;11.13;;
359;SDS011;168;48.872;9.226;2023-01-28T07:55:57;10.30;;;9.00;;
359;SDS011;168;48.872;9.226;2023-01-28T07:58:25;11.70;;;9.47;;
359;SDS011;168;48.872;9.226;2023-01-28T08:00:54;11.10;;;9.57;;
359;SDS011;168;48.872;9.226;2023-01-28T08:03:23;11.10;;;9.97;;
359;SDS011;168;48.872;9.226;2023-01-28T08:05:52;12.13;;;10.50;;
359;SDS011;168;48.872;9.226;2023-01-28T08:08:22;13.27;;;10.57;;
359;SDS011;168;48.872;9.226;2023-01-28T08:10:51;12.07;;;10.20;;
359;SDS011;168;48.872;9.226;2023-01-28T08:13:18;14.23;;;12.63;;
359;SDS011;168;48.872;9.226;2023-01-28T08:15:46;13.40;;;11.27;;
359;SDS011;168;48.872;9.226;2023-01-28T08:18:14;12.30;;;10.87;;
359;SDS011;168;48.872;9.226;2023-01-28T08:20:42;12.20;;;10.57;;
359;SDS011;168;48.872;9.226;2023-01-28T08:23:12;12.30;;;10.80;;
359;SDS011;168;48.872;9.226;2023-01-28T08:25:42;11.77;;;10.57;;
359;SDS011;168;48.872;9.226;2023-01-28T08:28:10;12.30;;;9.73;;
359;SDS011;168;48.872;9.226;2023-01-28T08:30:38;11.60;;;10.40;;
359;SDS011;168;48.872;9.226;2023-01-28T08:33:06;13.63;;;11.53;;
359;SDS011;168;48.872;9.226;2023-01-28T08:35:35;14.17;;;10.67;;
359;SDS011;168;48.872;9.226;2023-01-28T08:38:04;13.70;;;10.90;;
359;SDS011;168;48.872;9.226;2023-01-28T08:40:32;14.10;;;11.20;;
359;SDS011;168;48.872;9.226;2023-01-28T08:43:01;15.67;;;13.00;;
359;SDS011;168;48.872;9.226;2023-01-28T08:45:30;13.17;;;11.70;;
359;SDS011;168;48.872;9.226;2023-01-28T08:47:58;13.40;;;11.23;;
359;SDS011;168;48.872;9.226;2023-01-28T08:50:27;12.73;;;11.33;;
359;SDS011;168;48.872;9.226;2023-01-28T08:52:58;13.70;;;11.60;;
359;SDS011;168;48.872;9.226;2023-01-28T08:55:27;12.83;;;11.53;;
359;SDS011;168;48.872;9.226;2023-01-28T08:57:55;13.90;;;11.30;;
359;SDS011;168;48.872;9.226;2023-01-28T09:00:24;13.80;;;11.13;;
359;SDS011;168;48.872;9.226;2023-01-28T09:02:51;12.90;;;11.03;;
359;SDS011;168;48.872;9.226;2023-01-28T09:05:19;12.20;;;10.20;;
359;SDS011;168;48.872;9.226;2023-01-28T09:07:47;11.00;;;9.70;;
359;SDS011;168;48.872;9.226;2023-01-28T09:10:15;13.93;;;11.63;;
359;SDS011;168;48.872;9.226;2023-01-28T09:12:44;14.50;;;11.60;;
359;SDS011;168;48.872;9.226;2023-01-28T09:15:12;14.13;;;11.50;;
359;SDS011;168;48.872;9.226;2023-01-28T09:17:41;13.83;;;11.03;;
359;SDS011;168;48.872;9.226;2023-01-28T09:20:09;14.37;;;11.17;;
359;SDS011;168;48.872;9.226;2023-01-28T09:22:38;13.27;;;11.67;;
359;SDS011;168;48.872;9.226;2023-01-28T09:25:11;13.93;;;11.90;;
359;SDS011;168;48.872;9.226;2023-01-28T09:27:38;13.90;;;12.40;;
359;SDS011;168;48.872;9.226;2023-01-28T09:30:06;14.60;;;11.90;;
359;SDS011;168;48.872;9.226;2023-01-28T09:32:34;14.73;;;11.83;;
359;SDS011;168;48.872;9.226;2023-01-28T09:35:04;15.07;;;11.40;;
359;SDS011;168;48.872;9.226;2023-01-28T09:37:36;17.63;;;11.93;;
359;SDS011;168;48.872;9.226;2023-01-28T09:40:04;13.83;;;12.27;;
359;SDS011;168;48.872;9.226;2023-01-28T09:42:43;13.50;;;11.23;;
359;SDS011;168;48.872;9.226;2023-01-28T09:45:22;13.33;;;11.87;;
359;SDS011;168;48.872;9.226;2023-01-28T09:47:59;14.47;;;10.43;;
359;SDS011;168;48.872;9.226;2023-01-28T09:50:31;14.20;;;12.30;;
359;SDS011;168;48.872;9.226;2023-01-28T09:53:05;14.13;;;11.07;;
359;SDS011;168;48.872;9.226;2023-01-28T09:55:37;13.63;;;11.97;;
359;SDS011;168;48.872;9.226;2023-01-28T09:58:09;16.60;;;12.27;;
359;SDS011;168;48.872;9.226;2023-01-28T10:00:40;15.27;;;12.20;;
359;SDS011;168;48.872;9.226;2023-01-28T10:03:22;16.50;;;13.27;;
359;SDS011;168;48.872;9.226;2023-01-28T10:06:05;16.63;;;12.60;;
359;SDS011;168;48.872;9.226;2023-01-28T10:08:56;12.93;;;11.60;;
359;SDS011;168;48.872;9.226;2023-01-28T10:11:38;15.30;;;11.80;;
359;SDS011;168;48.872;9.226;2023-01-28T10:14:24;16.20;;;13.13;;
359;SDS011;168;48.872;9.226;2023-01-28T10:17:03;14.20;;;12.27;;
359;SDS011;168;48.872;9.226;2023-01-28T10:19:36;17.93;;;13.90;;
359;SDS011;168;48.872;9.226;2023-01-28T10:22:11;14.97;;;12.77;;
359;SDS011;168;48.872;9.226;2023-01-28T10:24:44;13.93;;;12.43;;
359;SDS011;168;48.872;9.226;2023-01-28T10:27:14;15.73;;;13.37;;
359;SDS011;168;48.872;9.226;2023-01-28T10:29:43;17.43;;;13.80;;
359;SDS011;168;48.872;9.226;2023-01-28T10:32:15;17.17;;;12.80;;
359;SDS011;168;48.872;9.226;2023-01-28T10:34:48;15.40;;;11.77;;
359;SDS011;168;48.872;9.226;2023-01-28T10:37:18;19.33;;;13.63;;
359;SDS011;168;48.872;9.226;2023-01-28T10:39:47;17.17;;;13.57;;
359;SDS011;168;48.872;9.226;2023-01-28T10:42:17;18.00;;;12.87;;
359;SDS011;168;48.872;9.226;2023-01-28T10:44:52;18.37;;;13.03;;
359;SDS011;168;48.872;9.226;2023-01-28T10:47:26;19.07;;;13.53;;
359;SDS011;168;48.872;9.226;2023-01-28T10:49:58;16.73;;;12.10;;
359;SDS011;168;48.872;9.226;2023-01-28T10:52:29;16.27;;;12.80;;
359;SDS011;168;48.872;9.226;2023-01-28T10:55:00;17.00;;;12.70;;
359;SDS011;168;48.872;9.226;2023-01-28T10:57:28;16.97;;;11.73;;
359;SDS011;168;48.872;9.226;2023-01-28T11:00:08;15.83;;;12.73;;
359;SDS011;168;48.872;9.226;2023-01-28T11:02:37;16.93;;;12.67;;
359;SDS011;168;48.872;9.226;2023-01-28T11:05:10;20.07;;;13.10;;
359;SDS011;168;48.872;9.226;2023-01-28T11:07:43;14.83;;;13.00;;
359;SDS011;168;48.872;9.226;2023-01-28T11:10:23;16.43;;;12.00;;
359;SDS011;168;48.872;9.226;2023-01-28T11:12:56;14.50;;;11.70;;
359;SDS011;168;48.872;9.226;2023-01-28T11:15:24;16.40;;;13.67;;
359;SDS011;168;48.872;9.226;2023-01-28T11:17:54;14.47;;;11.87;;
359;SDS011;168;48.872;9.226;2023-01-28T11:20:25;16.33;;;13.53;;
359;SDS011;168;48.872;9.226;2023-01-28T11:22:55;18.03;;;12.60;;
359;SDS011;168;48.872;9.226;2023-01-28T11:25:25;18.33;;;13.23;;
359;SDS011;168;48.872;9.226;2023-01-28T11:27:56;15.47;;;12.73;;
359;SDS011;168;48.872;9.226;2023-01-28T11:30:25;17.23;;;15.03;;
359;SDS011;168;48.872;9.226;2023-01-28T11:32:57;18.27;;;12.93;;
359;SDS011;168;48.872;9.226;2023-01-28T11:35:31;17.42;;;14.50;;
359;SDS011;168;48.872;9.226;2023-01-28T11:37:59;16.20;;;13.60;;
359;SDS011;168;48.872;9.226;2023-01-28T11:40:27;18.90;;;14.27;;
359;SDS011;168;48.872;9.226;2023-01-28T11:42:55;17.37;;;13.57;;
359;SDS011;168;48.872;9.226;2023-01-28T11:45:26;15.47;;;13.13;;
359;SDS011;168;48.872;9.226;2023-01-28T11:48:11;16.87;;;12.87;;
359;SDS011;168;48.872;9.226;2023-01-28T11:50:54;16.20;;;11.93;;
359;SDS011;168;48.872;9.226;2023-01-28T11:53:34;17.37;;;12.90;;
359;SDS011;168;48.872;9.226;2023-01-28T11:56:18;17.30;;;12.90;;
359;SDS011;168;48.872;9.226;2023-01-28T11:59:00;16.10;;;12.27;;
359;SDS011;168;48.872;9.226;2023-01-28T12:01:38;18.10;;;13.27;;
359;SDS011;168;48.872;9.226;2023-01-28T12:04:20;14.37;;;11.70;;
359;SDS011;168;48.872;9.226;2023-01-28T12:09:44;18.30;;;12.63;;
359;SDS011;168;48.872;9.226;2023-01-28T12:12:35;14.37;;;10.37;;
359;SDS011;168;48.872;9.226;2023-01-28T12:15:24;16.70;;;11.73;;
359;SDS011;168;48.872;9.226;2023-01-28T12:18:05;16.97;;;12.23;;
359;SDS011;168;48.872;9.226;2023-01-28T12:20:45;14.47;;;10.00;;
359;SDS011;168;48.872;9.226;2023-01-28T12:23:24;14.93;;;10.37;;
359;SDS011;168;48.872;9.226;2023-01-28T12:26:03;15.10;;;10.80;;
359;SDS011;168;48.872;9.226;2023-01-28T12:28:38;14.00;;;11.67;;
359;SDS011;168;48.872;9.226;2023-01-28T12:31:30;13.90;;;10.70;;
359;SDS011;168;48.872;9.226;2023-01-28T12:34:21;14.70;;;9.97;;
359;SDS011;168;48.872;9.226;2023-01-28T12:37:01;12.63;;;8.73;;
359;SDS011;168;48.872;9.226;2023-01-28T12:39:34;11.73;;;10.13;;
359;SDS011;168;48.872;9.226;2023-01-28T12:42:14;13.60;;;10.20;;
359;SDS011;168;48.872;9.226;2023-01-28T12:44:49;13.77;;;12.07;;
359;SDS011;168;48.872;9.226;2023-01-28T12:47:21;13.00;;;10.40;;
359;SDS011;168;48.872;9.226;2023-01-28T12:49:54;15.70;;;11.63;;
359;SDS011;168;48.872;9.226;2023-01-28T12:52:26;12.70;;;10.70;;
359;SDS011;168;48.872;9.226;2023-01-28T12:54:58;13.80;;;10.67;;
359;SDS011;168;48.872;9.226;2023-01-28T12:57:31;14.27;;;11.20;;
359;SDS011;168;48.872;9.226;2023-01-28T13:00:02;15.03;;;11.40;;
359;SDS011;168;48.872;9.226;2023-01-28T13:02:49;12.07;;;9.67;;
359;SDS011;168;48.872;9.226;2023-01-28T13:05:25;14.70;;;11.77;;
359;SDS011;168;48.872;9.226;2023-01-28T13:07:58;14.37;;;10.73;;
359;SDS011;168;48.872;9.226;2023-01-28T13:10:32;13.07;;;10.50;;
359;SDS011;168;48.872;9.226;2023-01-28T13:13:05;16.13;;;12.33;;
359;SDS011;168;48.872;9.226;2023-01-28T13:15:39;15.90;;;11.77;;
359;SDS011;168;48.872;9.226;2023-01-28T13:18:30;15.60;;;12.60;;
359;SDS011;168;48.872;9.226;2023-01-28T13:20:59;15.83;;;13.13;;
359;SDS011;168;48.872;9.226;2023-01-28T13:23:35;15.30;;;12.33;;
359;SDS011;168;48.872;9.226;2023-01-28T13:26:09;14.73;;;11.70;;
359;SDS011;168;48.872;9.226;2023-01-28T13:28:52;18.57;;;12.50;;
359;SDS011;168;48.872;9.226;2023-01-28T13:31:21;17.40;;;13.33;;
359;SDS011;168;48.872;9.226;2023-01-28T13:33:59;14.90;;;12.23;;
359;SDS011;168;48.872;9.226;2023-01-28T13:36:29;13.80;;;11.60;;
359;SDS011;168;48.872;9.226;2023-01-28T13:38:59;15.33;;;11.40;;
359;SDS011;168;48.872;9.226;2023-01-28T13:41:36;16.70;;;10.77;;
359;SDS011;168;48.872;9.226;2023-01-28T13:44:17;14.77;;;11.47;;
359;SDS011;168;48.872;9.226;2023-01-28T13:46:46;15.00;;;11.17;;
359;SDS011;168;48.872;9.226;2023-01-28T13:49:14;15.07;;;11.20;;
359;SDS011;168;48.872;9.226;2023-01-28T13:51:48;13.33;;;10.50;;
359;SDS011;168;48.872;9.226;2023-01-28T13:54:23;13.40;;;11.00;;
359;SDS011;168;48.872;9.226;2023-01-28T13:56:56;11.90;;;9.00;;
359;SDS011;168;48.872;9.226;2023-01-28T13:59:45;11.53;;;9.53;;
359;SDS011;168;48.872;9.226;2023-01-28T14:02:35;10.73;;;9.50;;
359;SDS011;168;48.872;9.226;2023-01-28T14:05:33;12.10;;;9.63;;
359;SDS011;168;48.872;9.226;2023-01-28T14:11:23;12.17;;;10.30;;
359;SDS011;168;48.872;9.226;2023-01-28T14:14:08;11.20;;;9.47;;
359;SDS011;168;48.872;9.226;2023-01-28T14:16:59;10.77;;;9.77;;
359;SDS011;168;48.872;9.226;2023-01-28T14:19:33;11.43;;;9.87;;
359;SDS011;168;48.872;9.226;2023-01-28T14:22:05;10.50;;;9.50;;
359;SDS011;168;48.872;9.226;2023-01-28T14:24:33;9.97;;;8.60;;
359;SDS011;168;48.872;9.226;2023-01-28T14:27:04;9.13;;;8.23;;
359;SDS011;168;48.872;9.226;2023-01-28T14:29:43;9.07;;;7.90;;
359;SDS011;168;48.872;9.226;2023-01-28T14:32:18;8.63;;;7.70;;
359;SDS011;168;48.872;9.226;2023-01-28T14:34:51;9.00;;;8.20;;
359;SDS011;168;48.872;9.226;2023-01-28T14:37:20;9.23;;;8.43;;
359;SDS011;168;48.872;9.226;2023-01-28T14:39:51;7.93;;;7.13;;
359;SDS011;168;48.872;9.226;2023-01-28T14:42:22;9.50;;;8.50;;
359;SDS011;168;48.872;9.226;2023-01-28T14:44:53;7.30;;;6.60;;
359;SDS011;168;48.872;9.226;2023-01-28T14:47:44;8.43;;;7.63;;
359;SDS011;168;48.872;9.226;2023-01-28T14:50:26;9.23;;;8.20;;
359;SDS011;168;48.872;9.226;2023-01-28T14:53:09;8.87;;;8.07;;
359;SDS011;168;48.872;9.226;2023-01-28T14:55:52;8.10;;;7.40;;
359;SDS011;168;48.872;9.226;2023-01-28T14:58:24;9.00;;;8.07;;
359;SDS011;168;48.872;9.226;2023-01-28T15:00:55;8.90;;;7.27;;
359;SDS011;168;48.872;9.226;2023-01-28T15:03:26;8.50;;;7.70;;
359;SDS011;168;48.872;9.226;2023-01-28T15:06:01;7.80;;;7.10;;
359;SDS011;168;48.872;9.226;2023-01-28T15:08:30;8.00;;;7.20;;
359;SDS011;168;48.872;9.226;2023-01-28T15:10:57;8.30;;;7.47;;
359;SDS011;168;48.872;9.226;2023-01-28T15:13:27;8.27;;;7.40;;
359;SDS011;168;48.872;9.226;2023-01-28T15:15:56;8.40;;;7.60;;
359;SDS011;168;48.872;9.226;2023-01-28T15:18:28;8.53;;;7.63;;
359;SDS011;168;48.872;9.226;2023-01-28T15:20:58;8.63;;;7.20;;
359;SDS011;168;48.872;9.226;2023-01-28T15:23:27;7.30;;;6.60;;
359;SDS011;168;48.872;9.226;2023-01-28T15:25:57;8.93;;;7.63;;
359;SDS011;168;48.872;9.226;2023-01-28T15:28:26;8.67;;;6.80;;
359;SDS011;168;48.872;9.226;2023-01-28T15:30:57;8.57;;;7.60;;
359;SDS011;168;48.872;9.226;2023-01-28T15:33:25;8.60;;;7.00;;
359;SDS011;168;48.872;9.226;2023-01-28T15:35:54;8.97;;;7.60;;
359;SDS011;168;48.872;9.226;2023-01-28T15:38:24;8.03;;;7.23;;
359;SDS011;168;48.872;9.226;2023-01-28T15:40:53;8.30;;;7.50;;
359;SDS011;168;48.872;9.226;2023-01-28T15:43:23;10.33;;;7.80;;
359;SDS011;168;48.872;9.226;2023-01-28T15:46:00;8.20;;;7.23;;
359;SDS011;168;48.872;9.226;2023-01-28T15:48:30;7.63;;;6.93;;
359;SDS011;168;48.872;9.226;2023-01-28T15:51:01;6.93;;;6.33;;
359;SDS011;168;48.872;9.226;2023-01-28T15:53:32;7.97;;;7.17;;
359;SDS011;168;48.872;9.226;2023-01-28T15:56:05;7.23;;;6.53;;
359;SDS011;168;48.872;9.226;2023-01-28T15:58:34;8.20;;;7.50;;
359;SDS011;168;48.872;9.226;2023-01-28T16:01:12;8.20;;;7.40;;
359;SDS011;168;48.872;9.226;2023-01-28T16:03:42;7.83;;;7.03;;
359;SDS011;168;48.872;9.226;2023-01-28T16:06:13;8.60;;;7.70;;
359;SDS011;168;48.872;9.226;2023-01-28T16:08:49;8.30;;;7.50;;
359;SDS011;168;48.872;9.226;2023-01-28T16:11:22;7.90;;;7.10;;
359;SDS011;168;48.872;9.226;2023-01-28T16:13:52;8.90;;;8.00;;